Dorval, Canada
Current Conditions -  °F | °C
As of 5:00 AM on Thursday 23 Oct 2014 (Local Time) from CYUL Reporting Station
Broken Clouds Broken Clouds  
Wind Chill: 37°   Ceiling: 4500
Heat Index: 45°   Visibility: 15mi
Dew Point: 36°   Wind: 20mph
Humidity: 71%   Direction: 30°NNE
Pressure: 30.11"   Gusts: 31mph
Location:  45.45°N, 73.75°W
Report Text: CYUL 230900Z 03017G27KT 15SM BKN045 BKN060 07/02 A3011 RMK SC5SC2 SLP197
Loading
Personal Weather Stations






























Interactive Weather Map
Tropical Storm Tracking
New forecast layout! Learn more

10-Day Weather Forecast

Advertisements
Track Severe Weather on mobile